createdAt,value
2022-08-22T00:00:17.737Z,73.16
2022-08-22T00:02:44.020Z,69.81
2022-08-22T00:03:02.741Z,65.43
2022-08-22T00:04:28.781Z,73.41
2022-08-22T00:08:53.529Z,73.40
2022-08-22T00:13:07.646Z,73.45
2022-08-22T00:17:21.133Z,73.20
2022-08-22T00:21:30.766Z,73.57
2022-08-22T00:25:44.423Z,73.89
2022-08-22T00:29:53.558Z,73.86
2022-08-22T00:34:12.140Z,74.64
2022-08-22T00:38:31.027Z,74.53
2022-08-22T00:42:53.622Z,74.69
2022-08-22T00:47:05.636Z,75.10
2022-08-22T00:51:19.034Z,75.62
2022-08-22T00:55:28.036Z,75.82
2022-08-22T00:59:47.710Z,75.98
2022-08-22T01:04:24.594Z,76.61
2022-08-22T01:08:48.071Z,76.63
2022-08-22T01:13:28.772Z,77.33
2022-08-22T01:17:33.122Z,77.12
2022-08-22T01:21:46.762Z,77.56
2022-08-22T01:26:12.529Z,78.10
2022-08-22T01:30:32.781Z,78.26
2022-08-22T01:35:03.692Z,78.31
2022-08-22T01:39:26.889Z,78.70
2022-08-22T01:44:00.038Z,78.50
2022-08-22T01:48:19.769Z,78.54
2022-08-22T01:52:36.357Z,78.43
2022-08-22T01:56:46.798Z,78.80
2022-08-22T02:00:57.730Z,78.84
2022-08-22T02:05:37.389Z,78.83
2022-08-22T02:09:48.089Z,78.76
2022-08-22T02:13:58.741Z,78.87
2022-08-22T02:18:06.455Z,78.95
2022-08-22T02:22:24.535Z,79.46
2022-08-22T02:26:44.870Z,79.70
2022-08-22T02:30:51.004Z,79.33
2022-08-22T02:35:01.477Z,79.75
2022-08-22T02:40:02.148Z,80.32
2022-08-22T02:44:17.202Z,80.10
2022-08-22T02:48:44.973Z,80.51
2022-08-22T02:52:58.467Z,80.10
2022-08-22T02:57:02.741Z,80.47
2022-08-22T03:01:15.146Z,80.36
2022-08-22T03:05:36.993Z,80.71
2022-08-22T03:09:47.998Z,80.74
2022-08-22T03:14:04.911Z,80.82
2022-08-22T03:18:25.736Z,81.30
2022-08-22T03:22:36.284Z,81.31
2022-08-22T03:27:31.400Z,81.28
2022-08-22T03:31:36.413Z,81.41
2022-08-22T03:35:44.189Z,81.78
2022-08-22T03:40:01.009Z,82.20
2022-08-22T03:44:24.293Z,81.83
2022-08-22T03:48:38.316Z,82.15
2022-08-22T03:53:07.127Z,82.13
2022-08-22T03:57:50.365Z,82.64
2022-08-22T04:02:24.694Z,82.80
2022-08-22T04:06:59.950Z,83.26
2022-08-22T04:11:19.038Z,82.67
2022-08-22T04:15:58.064Z,83.01
2022-08-22T04:20:37.768Z,82.87
2022-08-22T04:25:08.421Z,82.93
2022-08-22T04:29:24.484Z,83.19
2022-08-22T04:33:29.204Z,82.82
2022-08-22T04:37:59.314Z,83.06
2022-08-22T04:42:31.669Z,83.44
2022-08-22T04:46:57.754Z,83.47
2022-08-22T04:51:13.002Z,83.60
2022-08-22T04:55:45.512Z,83.70
2022-08-22T04:59:47.406Z,83.61
2022-08-22T05:04:01.909Z,83.80
2022-08-22T05:08:10.039Z,83.68
2022-08-22T05:12:20.634Z,83.81
2022-08-22T05:16:28.525Z,83.57
2022-08-22T05:20:30.820Z,83.76
2022-08-22T05:24:44.128Z,83.43
2022-08-22T05:28:53.116Z,83.71
2022-08-22T05:33:03.925Z,83.28
2022-08-22T05:37:18.980Z,83.62
2022-08-22T05:41:25.040Z,83.68
2022-08-22T05:45:28.495Z,83.34
2022-08-22T05:49:38.909Z,83.69
2022-08-22T05:53:45.492Z,83.79
2022-08-22T05:57:52.341Z,83.48
2022-08-22T06:02:05.590Z,83.87
2022-08-22T06:06:14.933Z,83.91
2022-08-22T06:10:42.804Z,84.05
2022-08-22T06:14:53.835Z,84.28
2022-08-22T06:18:57.788Z,83.79
2022-08-22T06:23:02.034Z,83.96
2022-08-22T06:27:09.061Z,83.38
2022-08-22T06:31:19.497Z,83.16
2022-08-22T06:35:29.300Z,82.96
2022-08-22T06:39:38.203Z,82.64
2022-08-22T06:43:43.386Z,82.68
2022-08-22T06:47:52.222Z,82.63
2022-08-22T06:52:01.766Z,82.05
2022-08-22T06:56:07.522Z,81.75
2022-08-22T07:00:15.284Z,81.65
2022-08-22T07:04:17.574Z,80.93
2022-08-22T07:08:21.434Z,80.91
2022-08-22T07:12:29.156Z,80.93
2022-08-22T07:16:52.050Z,81.27
2022-08-22T07:20:57.597Z,80.89
2022-08-22T07:25:12.890Z,81.65
2022-08-22T07:29:29.007Z,80.96
2022-08-22T07:33:48.065Z,81.05
2022-08-22T07:37:59.994Z,80.55
2022-08-22T07:42:16.466Z,80.02
2022-08-22T07:46:50.397Z,80.01
2022-08-22T07:51:12.552Z,80.04
2022-08-22T07:55:19.834Z,79.48
2022-08-22T07:59:23.376Z,79.47
2022-08-22T08:03:29.045Z,78.87
2022-08-22T08:07:32.260Z,78.53
2022-08-22T08:11:40.465Z,78.24
2022-08-22T08:15:45.871Z,78.31
2022-08-22T08:19:48.149Z,77.90
2022-08-22T08:23:49.907Z,77.31
2022-08-22T08:28:10.612Z,77.41
2022-08-22T08:32:13.529Z,77.02
2022-08-22T08:36:33.305Z,76.60
2022-08-22T08:40:34.923Z,76.43
2022-08-22T08:44:49.478Z,75.78
2022-08-22T08:49:13.196Z,75.59
2022-08-22T08:53:31.315Z,75.37
2022-08-22T08:57:54.851Z,74.94
2022-08-22T09:02:13.948Z,74.13
2022-08-22T09:06:52.697Z,72.95
2022-08-22T09:11:28.298Z,72.84
2022-08-22T09:16:04.748Z,71.89
2022-08-22T09:20:17.755Z,71.45
2022-08-22T09:24:48.826Z,70.78
2022-08-22T09:28:58.975Z,70.40
2022-08-22T09:33:11.727Z,69.48
2022-08-22T09:37:20.085Z,68.96
2022-08-22T09:41:36.609Z,67.85
2022-08-22T09:46:02.015Z,67.27
2022-08-22T09:50:32.466Z,65.98
2022-08-22T09:55:13.431Z,65.71
2022-08-22T09:59:35.691Z,65.73
2022-08-22T10:04:14.370Z,64.65
2022-08-22T10:08:39.771Z,64.28
2022-08-22T10:13:04.043Z,63.93
2022-08-22T10:17:21.889Z,63.40
2022-08-22T10:21:51.128Z,62.98
2022-08-22T10:26:22.797Z,62.85
2022-08-22T10:30:39.106Z,62.75
2022-08-22T10:34:53.697Z,62.54
2022-08-22T10:38:59.961Z,62.33
2022-08-22T10:43:29.850Z,61.48
2022-08-22T10:47:40.905Z,61.77
2022-08-22T10:51:57.063Z,61.05
2022-08-22T10:56:09.930Z,61.07
2022-08-22T11:00:27.107Z,60.07
2022-08-22T11:04:43.750Z,59.42
2022-08-22T11:08:56.773Z,59.14
2022-08-22T11:13:26.537Z,58.60
2022-08-22T11:18:16.043Z,57.41
2022-08-22T11:22:58.088Z,56.63
2022-08-22T11:27:17.755Z,55.72
2022-08-22T11:31:51.356Z,55.41
2022-08-22T11:36:04.593Z,55.46
2022-08-22T11:40:24.570Z,55.08
2022-08-22T11:44:32.139Z,54.88
2022-08-22T11:48:53.270Z,54.77
2022-08-22T11:53:32.235Z,54.20
2022-08-22T11:57:41.829Z,54.08
2022-08-22T12:02:13.164Z,53.31
2022-08-22T12:06:38.365Z,53.09
2022-08-22T12:10:57.837Z,53.24
2022-08-22T12:15:11.621Z,53.46
2022-08-22T12:19:35.459Z,53.13
2022-08-22T12:24:19.430Z,53.24
2022-08-22T12:28:44.993Z,53.20
2022-08-22T12:32:57.590Z,53.08
2022-08-22T12:37:19.458Z,52.77
2022-08-22T12:41:38.139Z,52.71
2022-08-22T12:45:56.374Z,52.38
2022-08-22T12:50:05.107Z,52.05
2022-08-22T12:54:44.249Z,51.70
2022-08-22T12:58:53.334Z,52.05
2022-08-22T13:03:03.778Z,51.73
2022-08-22T13:07:08.599Z,51.50
2022-08-22T13:11:22.375Z,51.02
2022-08-22T13:15:54.561Z,50.05
2022-08-22T13:20:09.485Z,49.23
2022-08-22T13:24:22.661Z,49.45
2022-08-22T13:28:44.217Z,49.72
2022-08-22T13:32:49.468Z,49.55
2022-08-22T13:36:54.041Z,49.68
2022-08-22T13:40:58.224Z,49.13
2022-08-22T13:45:05.466Z,48.83
2022-08-22T13:49:09.451Z,48.85
2022-08-22T13:53:23.002Z,48.79
2022-08-22T13:57:36.136Z,48.74
2022-08-22T14:01:53.002Z,48.77
2022-08-22T14:05:58.819Z,48.60
2022-08-22T14:10:27.609Z,48.01
2022-08-22T14:14:33.759Z,47.68
2022-08-22T14:18:45.693Z,47.32
2022-08-22T14:23:00.977Z,47.36
2022-08-22T14:27:27.045Z,46.80
2022-08-22T14:31:30.687Z,47.20
2022-08-22T14:35:43.418Z,46.75
2022-08-22T14:40:02.156Z,46.34
2022-08-22T14:44:11.706Z,46.53
2022-08-22T14:48:30.410Z,46.24
2022-08-22T14:52:36.663Z,46.29
2022-08-22T14:56:40.916Z,46.29
2022-08-22T15:00:47.198Z,46.25
2022-08-22T15:04:53.765Z,46.01
2022-08-22T15:08:57.146Z,45.96
2022-08-22T15:13:03.007Z,45.66
2022-08-22T15:17:08.484Z,45.74
2022-08-22T15:21:21.090Z,45.29
2022-08-22T15:25:41.037Z,45.16
2022-08-22T15:29:55.778Z,44.90
2022-08-22T15:34:23.020Z,44.59
2022-08-22T15:38:38.435Z,44.41
2022-08-22T15:42:50.533Z,44.33
2022-08-22T15:46:52.192Z,44.47
2022-08-22T15:51:01.390Z,44.39
2022-08-22T15:55:26.680Z,43.83
2022-08-22T15:59:48.186Z,44.45
2022-08-22T16:04:00.137Z,44.85
2022-08-22T16:08:06.743Z,44.90
2022-08-22T16:12:12.328Z,44.74
2022-08-22T16:17:01.745Z,44.43
2022-08-22T16:21:13.641Z,45.25
2022-08-22T16:25:16.094Z,45.70
2022-08-22T16:29:41.479Z,45.64
2022-08-22T16:33:44.298Z,45.50
2022-08-22T16:37:49.927Z,45.59
2022-08-22T16:42:23.104Z,45.56
2022-08-22T16:46:37.041Z,45.58
2022-08-22T16:50:41.032Z,45.76
2022-08-22T16:54:46.270Z,45.65
2022-08-22T16:59:03.317Z,45.63
2022-08-22T17:03:47.769Z,45.77
2022-08-22T17:08:11.416Z,45.70
2022-08-22T17:12:50.495Z,45.53
2022-08-22T17:17:16.977Z,45.99
2022-08-22T17:21:28.442Z,46.03
2022-08-22T17:25:45.726Z,46.14
2022-08-22T17:29:50.196Z,46.36
2022-08-22T17:34:02.054Z,46.76
2022-08-22T17:38:30.494Z,46.84
2022-08-22T17:42:40.854Z,47.34
2022-08-22T17:47:14.991Z,47.65
2022-08-22T17:51:41.417Z,48.40
2022-08-22T17:56:12.182Z,48.40
2022-08-22T18:00:30.641Z,48.99
2022-08-22T18:04:44.431Z,49.38
2022-08-22T18:09:13.722Z,49.68
2022-08-22T18:13:49.532Z,50.66
2022-08-22T18:17:57.641Z,51.20
2022-08-22T18:22:05.346Z,52.68
2022-08-22T18:26:06.858Z,53.90
2022-08-22T18:30:11.325Z,53.90
2022-08-22T18:34:30.010Z,55.28
2022-08-22T18:38:49.506Z,55.73
2022-08-22T18:42:54.607Z,56.74
2022-08-22T18:47:10.636Z,57.71
2022-08-22T18:51:24.643Z,57.94
2022-08-22T18:55:43.499Z,58.51
2022-08-22T19:00:05.987Z,58.76
2022-08-22T19:04:17.209Z,58.80
2022-08-22T19:08:44.204Z,58.62
2022-08-22T19:13:17.232Z,59.07
2022-08-22T19:17:30.969Z,58.83
2022-08-22T19:21:53.923Z,59.44
2022-08-22T19:26:23.422Z,59.71
2022-08-22T19:30:33.976Z,59.90
2022-08-22T19:34:46.945Z,60.18
2022-08-22T19:38:57.454Z,60.79
2022-08-22T19:42:59.684Z,61.88
2022-08-22T19:47:19.914Z,62.58
2022-08-22T19:51:21.472Z,62.91
2022-08-22T19:55:28.917Z,63.60
2022-08-22T19:59:50.494Z,64.08
2022-08-22T20:04:20.512Z,65.00
2022-08-22T20:08:38.599Z,64.87
2022-08-22T20:12:46.257Z,65.79
2022-08-22T20:17:02.962Z,65.62
2022-08-22T20:21:04.717Z,66.17
2022-08-22T20:25:42.544Z,66.96
2022-08-22T20:29:49.131Z,66.85
2022-08-22T20:34:17.520Z,67.53
2022-08-22T20:38:24.488Z,67.37
2022-08-22T20:42:31.242Z,67.43
2022-08-22T20:46:46.115Z,67.42
2022-08-22T20:50:48.035Z,66.79
2022-08-22T20:55:00.392Z,67.35
2022-08-22T20:59:35.833Z,67.46
2022-08-22T21:03:43.331Z,67.43
2022-08-22T21:07:46.649Z,67.35
2022-08-22T21:11:51.235Z,67.10
2022-08-22T21:16:02.499Z,66.83
2022-08-22T21:20:22.137Z,66.96
2022-08-22T21:24:23.756Z,66.83
2022-08-22T21:28:28.919Z,66.57
2022-08-22T21:32:40.354Z,66.50
2022-08-22T21:36:42.404Z,66.28
2022-08-22T21:40:44.464Z,66.05
2022-08-22T21:45:00.222Z,65.87
2022-08-22T21:49:05.281Z,65.89
2022-08-22T21:53:11.944Z,66.13
2022-08-22T21:57:16.515Z,66.41
2022-08-22T22:01:31.626Z,66.51
2022-08-22T22:05:34.128Z,66.62
2022-08-22T22:09:35.748Z,66.77
2022-08-22T22:13:38.581Z,66.97
2022-08-22T22:17:40.178Z,67.25
2022-08-22T22:21:41.924Z,67.67
2022-08-22T22:25:44.923Z,67.88
2022-08-22T22:29:46.677Z,68.66
2022-08-22T22:33:48.377Z,68.79
2022-08-22T22:37:50.169Z,69.25
2022-08-22T22:41:51.770Z,69.63
2022-08-22T22:45:53.371Z,69.49
2022-08-22T22:49:56.073Z,70.08
2022-08-22T22:53:57.920Z,70.04
2022-08-22T22:58:00.066Z,70.58
2022-08-22T23:02:15.919Z,70.70
2022-08-22T23:06:20.836Z,70.89
2022-08-22T23:10:23.317Z,70.70
2022-08-22T23:14:25.353Z,70.82
2022-08-22T23:18:30.607Z,70.96
2022-08-22T23:22:33.863Z,71.31
2022-08-22T23:26:36.056Z,71.40
2022-08-22T23:30:38.322Z,71.93
2022-08-22T23:34:45.745Z,71.70
2022-08-22T23:38:49.580Z,72.05
2022-08-22T23:42:51.158Z,71.88
2022-08-22T23:46:53.706Z,72.25
2022-08-22T23:50:55.346Z,72.14
2022-08-22T23:54:56.941Z,72.30
2022-08-22T23:59:00.919Z,72.57
